createdAt,value
2022-08-09T00:02:29.168Z,21.50
2022-08-09T00:07:31.169Z,21.42
2022-08-09T00:12:46.907Z,21.37
2022-08-09T00:18:07.477Z,21.31
2022-08-09T00:23:57.236Z,21.28
2022-08-09T00:28:35.947Z,21.23
2022-08-09T00:33:51.036Z,21.17
2022-08-09T00:38:54.271Z,21.03
2022-08-09T00:44:19.576Z,20.90
2022-08-09T00:49:18.266Z,20.67
2022-08-09T00:54:31.580Z,20.52
2022-08-09T00:59:41.512Z,20.38
2022-08-09T01:05:13.700Z,20.32
2022-08-09T01:10:41.806Z,20.37
2022-08-09T01:15:51.994Z,20.27
2022-08-09T01:21:10.038Z,20.26
2022-08-09T01:26:46.254Z,20.08
2022-08-09T01:32:30.873Z,20.01
2022-08-09T01:37:16.769Z,20.13
2022-08-09T01:42:33.517Z,20.24
2022-08-09T01:47:44.902Z,20.28
2022-08-09T01:52:48.153Z,20.27
2022-08-09T01:57:55.931Z,20.18
2022-08-09T02:02:59.246Z,20.05
2022-08-09T02:08:40.186Z,19.99
2022-08-09T02:13:37.709Z,19.79
2022-08-09T02:18:47.724Z,19.78
2022-08-09T02:23:54.977Z,19.77
2022-08-09T02:29:02.293Z,19.77
2022-08-09T02:34:13.675Z,19.73
2022-08-09T02:39:54.969Z,19.56
2022-08-09T02:45:03.859Z,19.42
2022-08-09T02:50:13.489Z,19.35
2022-08-09T02:55:20.736Z,19.20
2022-08-09T03:00:26.112Z,19.06
2022-08-09T03:05:34.531Z,18.94
2022-08-09T03:10:38.614Z,18.88
2022-08-09T03:16:06.650Z,18.90
2022-08-09T03:21:06.580Z,18.83
2022-08-09T03:26:08.690Z,18.86
2022-08-09T03:31:21.238Z,18.84
2022-08-09T03:36:27.688Z,18.76
2022-08-09T03:41:45.854Z,18.65
2022-08-09T03:46:51.010Z,18.54
2022-08-09T03:52:00.349Z,18.56
2022-08-09T03:57:17.933Z,18.59
2022-08-09T04:02:26.892Z,18.59
2022-08-09T04:07:33.699Z,18.61
2022-08-09T04:12:53.643Z,18.67
2022-08-09T04:17:57.754Z,18.73
2022-08-09T04:22:59.973Z,18.81
2022-08-09T04:28:03.624Z,18.94
2022-08-09T04:33:05.802Z,19.06
2022-08-09T04:38:10.545Z,19.21
2022-08-09T04:43:12.548Z,19.34
2022-08-09T04:48:16.041Z,19.48
2022-08-09T04:53:18.089Z,19.65
2022-08-09T04:58:20.031Z,19.84
2022-08-09T05:03:40.435Z,20.02
2022-08-09T05:08:47.782Z,20.20
2022-08-09T05:13:50.046Z,20.31
2022-08-09T05:18:59.108Z,20.41
2022-08-09T05:24:03.738Z,20.56
2022-08-09T05:29:06.098Z,20.70
2022-08-09T05:34:07.974Z,20.84
2022-08-09T05:39:28.268Z,20.97
2022-08-09T05:44:34.610Z,21.14
2022-08-09T05:50:26.004Z,21.34
2022-08-09T05:55:03.257Z,21.58
2022-08-09T06:00:10.018Z,21.81
2022-08-09T06:05:16.295Z,22.04
2022-08-09T06:10:18.544Z,22.28
2022-08-09T06:15:21.349Z,22.53
2022-08-09T06:20:23.465Z,22.77
2022-08-09T06:25:26.466Z,23.05
2022-08-09T06:30:29.183Z,23.32
2022-08-09T06:35:56.498Z,23.58
2022-08-09T06:40:55.051Z,23.95
2022-08-09T06:46:06.593Z,24.35
2022-08-09T06:51:12.910Z,24.67
2022-08-09T06:56:16.795Z,25.03
2022-08-09T07:01:24.008Z,25.36
2022-08-09T07:06:29.612Z,25.56
2022-08-09T07:11:34.196Z,25.78
2022-08-09T07:16:55.319Z,26.15
2022-08-09T07:22:00.036Z,26.41
2022-08-09T07:27:02.390Z,26.59
2022-08-09T07:32:05.253Z,26.67
2022-08-09T07:37:15.639Z,26.60
2022-08-09T07:42:18.015Z,26.49
2022-08-09T07:47:21.036Z,26.65
2022-08-09T07:52:24.211Z,26.95
2022-08-09T07:57:35.861Z,27.22
2022-08-09T08:02:42.621Z,27.39
2022-08-09T08:09:01.456Z,27.58
2022-08-09T08:13:06.877Z,27.72
2022-08-09T08:18:14.511Z,27.94
2022-08-09T08:23:18.811Z,28.06
2022-08-09T08:28:32.190Z,28.19
2022-08-09T08:33:40.615Z,28.43
2022-08-09T08:38:54.291Z,28.57
2022-08-09T08:44:02.546Z,28.83
2022-08-09T08:49:07.837Z,28.98
2022-08-09T08:54:20.172Z,29.13
2022-08-09T08:59:23.049Z,29.25
2022-08-09T09:04:37.792Z,29.49
2022-08-09T09:10:01.769Z,29.66
2022-08-09T09:15:07.264Z,29.84
2022-08-09T09:20:15.514Z,29.89
2022-08-09T09:26:00.985Z,29.99
2022-08-09T09:31:06.135Z,29.79
2022-08-09T09:36:20.352Z,30.01
2022-08-09T09:41:33.403Z,30.34
2022-08-09T09:46:52.472Z,30.57
2022-08-09T09:52:16.649Z,30.58
2022-08-09T09:58:02.901Z,30.50
2022-08-09T10:02:56.123Z,30.48
2022-08-09T10:08:26.100Z,30.56
2022-08-09T10:13:43.344Z,30.50
2022-08-09T10:18:56.170Z,30.41
2022-08-09T10:24:04.654Z,30.34
2022-08-09T10:29:36.099Z,30.21
2022-08-09T10:34:32.785Z,30.46
2022-08-09T10:39:40.979Z,30.69
2022-08-09T10:44:59.559Z,30.85
2022-08-09T10:50:52.276Z,30.54
2022-08-09T10:56:22.608Z,30.28
2022-08-09T11:03:15.571Z,30.13
2022-08-09T11:07:00.167Z,29.97
2022-08-09T11:12:12.448Z,29.91
2022-08-09T11:17:14.447Z,29.92
2022-08-09T11:22:24.551Z,29.99
2022-08-09T11:28:03.943Z,30.10
2022-08-09T11:33:26.164Z,30.16
2022-08-09T11:38:33.137Z,30.46
2022-08-09T11:43:37.434Z,30.87
2022-08-09T11:48:52.381Z,31.31
2022-08-09T11:54:27.606Z,31.73
2022-08-09T11:59:35.893Z,31.67
2022-08-09T12:04:40.630Z,31.66
2022-08-09T12:09:50.561Z,31.56
2022-08-09T12:15:07.255Z,31.34
2022-08-09T12:20:22.190Z,30.98
2022-08-09T12:25:31.991Z,30.75
2022-08-09T12:30:40.056Z,30.68
2022-08-09T12:35:42.959Z,30.70
2022-08-09T12:40:51.870Z,31.03
2022-08-09T12:46:00.165Z,31.47
2022-08-09T12:51:03.655Z,31.48
2022-08-09T12:56:39.582Z,31.55
2022-08-09T13:01:49.044Z,31.43
2022-08-09T13:06:51.793Z,31.30
2022-08-09T13:12:03.216Z,31.33
2022-08-09T13:17:13.718Z,31.01
2022-08-09T13:22:38.124Z,30.82
2022-08-09T13:27:55.303Z,30.68
2022-08-09T13:32:58.339Z,30.59
2022-08-09T13:38:03.402Z,30.64
2022-08-09T13:43:09.519Z,30.65
2022-08-09T13:48:12.302Z,30.67
2022-08-09T13:53:16.816Z,30.84
2022-08-09T13:58:18.731Z,31.25
2022-08-09T14:04:02.245Z,31.31
2022-08-09T14:08:43.726Z,31.08
2022-08-09T14:14:16.418Z,30.97
2022-08-09T14:19:08.492Z,30.95
2022-08-09T14:24:18.726Z,30.96
2022-08-09T14:30:18.444Z,31.01
2022-08-09T14:34:56.876Z,30.98
2022-08-09T14:39:59.027Z,30.87
2022-08-09T14:46:39.360Z,30.86
2022-08-09T14:50:24.976Z,30.96
2022-08-09T14:55:29.256Z,30.98
2022-08-09T15:00:36.111Z,30.93
2022-08-09T15:05:39.048Z,30.90
2022-08-09T15:10:42.104Z,30.88
2022-08-09T15:15:44.028Z,30.89
2022-08-09T15:21:54.616Z,30.93
2022-08-09T15:26:09.149Z,30.93
2022-08-09T15:31:21.282Z,30.86
2022-08-09T15:36:30.681Z,30.85
2022-08-09T15:41:32.803Z,30.84
2022-08-09T15:46:35.295Z,30.90
2022-08-09T15:52:02.703Z,30.89
2022-08-09T15:56:59.218Z,30.84
2022-08-09T16:02:03.666Z,30.80
2022-08-09T16:07:07.635Z,30.66
2022-08-09T16:12:11.263Z,30.58
2022-08-09T16:17:17.255Z,30.52
2022-08-09T16:22:19.241Z,30.51
2022-08-09T16:27:22.567Z,30.42
2022-08-09T16:32:53.505Z,30.36
2022-08-09T16:37:56.946Z,30.27
2022-08-09T16:43:02.194Z,30.24
2022-08-09T16:48:41.898Z,30.26
2022-08-09T16:53:32.521Z,30.28
2022-08-09T16:58:37.123Z,30.29
2022-08-09T17:03:41.817Z,30.29
2022-08-09T17:09:01.576Z,30.27
2022-08-09T17:14:06.524Z,30.23
2022-08-09T17:19:10.659Z,30.15
2022-08-09T17:24:28.400Z,29.97
2022-08-09T17:29:37.907Z,29.80
2022-08-09T17:35:03.730Z,29.58
2022-08-09T17:40:06.306Z,29.44
2022-08-09T17:45:37.673Z,29.35
2022-08-09T17:50:41.678Z,29.30
2022-08-09T17:56:03.361Z,29.27
2022-08-09T18:01:08.515Z,29.23
2022-08-09T18:06:14.917Z,29.18
2022-08-09T18:11:46.856Z,29.12
2022-08-09T18:16:57.676Z,29.04
2022-08-09T18:21:59.667Z,28.92
2022-08-09T18:27:03.764Z,28.80
2022-08-09T18:32:09.249Z,28.67
2022-08-09T18:37:48.119Z,28.59
2022-08-09T18:42:33.438Z,28.52
2022-08-09T18:47:37.627Z,28.46
2022-08-09T18:52:39.929Z,28.36
2022-08-09T18:57:45.395Z,28.30
2022-08-09T19:02:50.945Z,28.25
2022-08-09T19:08:04.813Z,28.18
2022-08-09T19:13:20.448Z,28.14
2022-08-09T19:18:33.690Z,28.06
2022-08-09T19:24:32.392Z,28.01
2022-08-09T19:29:09.500Z,27.96
2022-08-09T19:34:22.992Z,27.78
2022-08-09T19:39:43.208Z,27.56
2022-08-09T19:44:51.237Z,27.32
2022-08-09T19:50:07.638Z,27.06
2022-08-09T19:55:15.529Z,26.77
2022-08-09T20:00:17.808Z,26.52
2022-08-09T20:05:20.100Z,26.31
2022-08-09T20:10:33.947Z,26.18
2022-08-09T20:16:35.773Z,26.06
2022-08-09T20:21:02.061Z,25.92
2022-08-09T20:26:04.265Z,25.92
2022-08-09T20:31:09.174Z,25.88
2022-08-09T20:36:12.515Z,25.74
2022-08-09T20:41:14.767Z,25.67
2022-08-09T20:46:41.773Z,25.57
2022-08-09T20:51:41.331Z,25.50
2022-08-09T20:56:47.283Z,25.51
2022-08-09T21:01:53.489Z,25.51
2022-08-09T21:06:55.676Z,25.41
2022-08-09T21:18:21.220Z,24.92
2022-08-09T21:22:38.092Z,24.90
2022-08-09T21:28:01.490Z,24.85
2022-08-09T21:33:03.590Z,24.73
2022-08-09T21:38:09.482Z,24.71
2022-08-09T21:43:12.089Z,24.67
2022-08-09T21:48:23.487Z,24.65
2022-08-09T21:53:41.008Z,24.64
2022-08-09T21:58:43.419Z,24.51
2022-08-09T22:03:48.432Z,24.31
2022-08-09T22:09:01.653Z,24.20
2022-08-09T22:14:03.631Z,24.00
2022-08-09T22:19:57.755Z,23.97
2022-08-09T22:24:27.451Z,23.99
2022-08-09T22:29:46.206Z,23.81
2022-08-09T22:34:54.406Z,23.57
2022-08-09T22:40:06.008Z,23.47
2022-08-09T22:48:15.223Z,23.35
2022-08-09T22:50:32.799Z,23.26
2022-08-09T22:56:06.395Z,23.22
2022-08-09T23:00:56.627Z,23.06
2022-08-09T23:05:59.464Z,23.02
2022-08-09T23:11:01.912Z,22.80
2022-08-09T23:16:03.959Z,22.50
2022-08-09T23:21:06.472Z,22.55
2022-08-09T23:26:09.318Z,22.37
2022-08-09T23:31:11.491Z,22.37
2022-08-09T23:36:13.360Z,22.29
2022-08-09T23:41:28.271Z,22.31
2022-08-09T23:46:31.918Z,22.25
2022-08-09T23:51:33.772Z,22.36
2022-08-09T23:56:52.269Z,22.44
